Time;durP1;ratioP1;P1;durP2;ratioP2;P2;SDS_P1;SDS_P2;PMS_P1;PMS_P2;Temp;Humidity;BMP_temperature;BMP_pressure;BME280_temperature;BME280_humidity;BME280_pressure;Samples;Min_cycle;Max_cycle;Signal;HPM_P1;HPM_P2
2023/03/06 00:00:01;;;;;;;32.83;17.07;;;;;;;2.75;100.00;95484.25;5081596;28;20203;-77
2023/03/06 00:02:28;;;;;;;40.17;17.73;;;;;;;2.70;100.00;95481.38;5086711;28;20223;-77
2023/03/06 00:04:57;;;;;;;34.97;17.07;;;;;;;2.61;100.00;95488.75;5083387;28;20216;-77
2023/03/06 00:07:24;;;;;;;34.97;17.40;;;;;;;2.55;100.00;95478.88;5080748;28;20200;-77
2023/03/06 00:09:51;;;;;;;31.23;17.13;;;;;;;2.63;100.00;95476.03;5092792;28;20199;-77
2023/03/06 00:12:18;;;;;;;36.23;17.97;;;;;;;2.71;100.00;95473.19;5092910;28;20196;-77
2023/03/06 00:14:45;;;;;;;33.00;16.77;;;;;;;2.77;100.00;95472.34;5077844;28;20224;-77
2023/03/06 00:17:12;;;;;;;34.90;16.17;;;;;;;2.75;100.00;95468.25;5095045;28;20291;-76
2023/03/06 00:19:39;;;;;;;35.03;16.67;;;;;;;2.67;100.00;95471.94;5097308;28;20201;-77
2023/03/06 00:22:10;;;;;;;33.30;16.70;;;;;;;2.65;100.00;95469.47;5087699;28;20243;-77
2023/03/06 00:24:37;;;;;;;34.03;16.70;;;;;;;2.75;100.00;95458.41;5084881;28;20200;-77
2023/03/06 00:27:04;;;;;;;31.30;16.50;;;;;;;2.78;100.00;95454.53;5083577;28;20199;-77
2023/03/06 00:29:31;;;;;;;29.80;15.80;;;;;;;2.79;100.00;95448.16;5083569;28;20209;-78
2023/03/06 00:31:58;;;;;;;31.43;15.57;;;;;;;2.72;100.00;95447.34;5090159;28;20203;-78
2023/03/06 00:34:26;;;;;;;34.63;16.60;;;;;;;2.61;100.00;95452.25;5110444;28;20219;-77
2023/03/06 00:36:53;;;;;;;31.87;16.43;;;;;;;2.54;100.00;95450.59;5094928;28;20193;-77
2023/03/06 00:39:22;;;;;;;31.97;15.67;;;;;;;2.51;100.00;95440.34;5100587;28;20212;-77
2023/03/06 00:41:49;;;;;;;36.23;17.40;;;;;;;2.49;100.00;95434.38;5103411;28;20243;-76
2023/03/06 00:44:16;;;;;;;32.60;15.77;;;;;;;2.46;100.00;95432.97;5095325;28;20254;-77
2023/03/06 00:46:43;;;;;;;35.63;16.00;;;;;;;2.53;100.00;95428.47;5089368;28;20247;-77
2023/03/06 00:49:10;;;;;;;35.97;16.30;;;;;;;2.64;100.00;95427.84;5099397;28;20243;-76
2023/03/06 00:51:37;;;;;;;32.77;16.47;;;;;;;2.71;100.00;95427.03;5098600;28;20192;-77
2023/03/06 00:54:04;;;;;;;33.63;15.43;;;;;;;2.68;100.00;95425.59;5098623;28;20200;-77
2023/03/06 00:56:33;;;;;;;34.53;17.40;;;;;;;2.64;100.00;95430.50;5100327;28;20204;-77
2023/03/06 00:59:00;;;;;;;32.13;15.57;;;;;;;2.65;100.00;95420.66;5090752;28;20209;-76
2023/03/06 01:01:28;;;;;;;32.27;14.93;;;;;;;2.65;100.00;95426.00;5094935;28;20220;-77
2023/03/06 01:03:55;;;;;;;33.00;15.63;;;;;;;2.66;100.00;95416.97;5100415;28;20200;-77
2023/03/06 01:06:22;;;;;;;28.57;14.60;;;;;;;2.71;100.00;95413.72;5099314;28;20197;-76
2023/03/06 01:08:49;;;;;;;31.07;15.67;;;;;;;2.70;100.00;95390.75;5100441;27;20208;-76
2023/03/06 01:11:17;;;;;;;28.53;14.60;;;;;;;2.82;100.00;95395.25;5097717;28;20200;-77
2023/03/06 01:13:47;;;;;;;32.17;15.93;;;;;;;2.84;100.00;95395.03;5108535;27;20229;-77
2023/03/06 01:16:17;;;;;;;31.47;16.53;;;;;;;2.90;100.00;95378.22;5102136;28;20205;-77
2023/03/06 01:18:46;;;;;;;31.27;15.53;;;;;;;2.96;100.00;95388.91;5107471;27;20226;-77
2023/03/06 01:21:13;;;;;;;29.53;15.37;;;;;;;2.96;100.00;95385.41;5094030;28;20212;-76
2023/03/06 01:23:41;;;;;;;31.87;15.53;;;;;;;2.95;100.00;95373.09;5101056;28;20192;-76
2023/03/06 01:26:08;;;;;;;30.37;14.93;;;;;;;2.93;100.00;95365.31;5105717;28;20199;-77
2023/03/06 01:28:36;;;;;;;30.03;15.80;;;;;;;2.94;100.00;95360.78;5102870;28;20238;-76
2023/03/06 01:31:05;;;;;;;28.77;14.70;;;;;;;2.94;100.00;95356.28;5093707;28;20204;-77
2023/03/06 01:33:33;;;;;;;33.03;16.07;;;;;;;3.01;100.00;95365.09;5099801;28;20289;-77
2023/03/06 01:36:04;;;;;;;31.10;14.87;;;;;;;3.04;100.00;95361.19;5102641;28;20197;-76
2023/03/06 01:38:31;;;;;;;29.23;14.30;;;;;;;3.06;100.00;95359.16;5102693;28;20213;-77
2023/03/06 01:40:58;;;;;;;27.87;14.83;;;;;;;3.15;100.00;95357.09;5091857;28;20227;-76
2023/03/06 01:43:29;;;;;;;30.87;14.80;;;;;;;3.22;100.00;95350.72;5094094;28;20292;-76
2023/03/06 01:46:40;;;;;;;29.90;14.50;;;;;;;3.23;100.00;95357.66;5109949;27;20205;-76
2023/03/06 01:49:20;;;;;;;30.13;14.70;;;;;;;3.24;100.00;95345.13;5048200;28;20282;-77
2023/03/06 01:51:52;;;;;;;29.57;14.13;;;;;;;3.26;100.00;95343.91;5062849;28;20231;-76
2023/03/06 01:54:23;;;;;;;31.20;15.07;;;;;;;3.29;100.00;95343.50;5068778;28;20279;-78
2023/03/06 01:56:54;;;;;;;30.57;15.70;;;;;;;3.19;100.00;95332.44;5082862;28;20209;-76
2023/03/06 01:59:23;;;;;;;28.97;15.90;;;;;;;3.08;100.00;95346.41;5064203;28;20201;-76
2023/03/06 02:01:50;;;;;;;28.33;15.40;;;;;;;3.02;100.00;95334.75;5060576;28;20220;-76
2023/03/06 02:04:20;;;;;;;27.30;15.37;;;;;;;2.98;100.00;95328.16;5061773;28;20205;-76
2023/03/06 02:06:48;;;;;;;30.47;15.47;;;;;;;2.98;100.00;95322.84;5082918;28;20198;-76
2023/03/06 02:09:16;;;;;;;32.20;16.60;;;;;;;2.94;100.00;95326.97;5068626;28;20324;-76
2023/03/06 02:11:45;;;;;;;32.10;15.80;;;;;;;2.91;100.00;95319.38;5068587;28;20192;-76
2023/03/06 02:14:14;;;;;;;30.57;15.03;;;;;;;2.92;100.00;95315.66;5064557;28;20315;-77
2023/03/06 02:16:42;;;;;;;27.70;15.40;;;;;;;2.94;100.00;95308.28;5066082;28;20211;-76
2023/03/06 02:19:21;;;;;;;29.53;15.53;;;;;;;2.88;100.00;95311.81;5065778;28;20258;-76
2023/03/06 02:21:51;;;;;;;29.43;14.97;;;;;;;2.75;100.00;95309.13;5072177;28;20313;-77
2023/03/06 02:24:31;;;;;;;27.90;15.03;;;;;;;2.73;100.00;95311.19;5060243;28;20209;-77
2023/03/06 02:27:01;;;;;;;33.03;16.43;;;;;;;2.73;100.00;95313.84;5064642;28;20204;-77
2023/03/06 02:29:30;;;;;;;33.07;15.67;;;;;;;2.66;100.00;95311.19;5075518;28;20220;-76
2023/03/06 02:32:00;;;;;;;29.87;15.47;;;;;;;2.56;100.00;95313.44;5058403;28;20202;-77
2023/03/06 02:35:00;;;;;;;29.17;14.77;;;;;;;2.39;100.00;95303.41;5058276;28;20206;-76
2023/03/06 02:37:29;;;;;;;29.40;14.37;;;;;;;2.27;100.00;95297.91;5073105;28;20205;-77
2023/03/06 02:40:07;;;;;;;31.93;15.40;;;;;;;2.23;100.00;95291.31;5066348;28;20223;-76
2023/03/06 02:42:35;;;;;;;29.00;14.87;;;;;;;2.18;100.00;95291.94;5057556;28;20227;-77
2023/03/06 02:45:07;;;;;;;30.53;16.07;;;;;;;2.16;100.00;95282.53;5071162;28;20200;-76
2023/03/06 02:47:34;;;;;;;28.67;15.03;;;;;;;2.22;100.00;95282.50;5075442;28;20320;-77
2023/03/06 02:50:01;;;;;;;30.67;15.27;;;;;;;2.28;100.00;95280.91;5080127;28;20223;-77
2023/03/06 02:52:28;;;;;;;30.43;14.50;;;;;;;2.35;100.00;95286.22;5089081;28;20211;-76
2023/03/06 02:54:56;;;;;;;31.00;15.13;;;;;;;2.36;100.00;95291.34;5086430;27;20205;-77
2023/03/06 02:57:23;;;;;;;35.63;15.20;;;;;;;2.43;100.00;95296.66;5116043;27;20286;-77
2023/03/06 02:59:52;;;;;;;32.27;16.03;;;;;;;2.48;100.00;95303.00;5098508;27;20220;-77
2023/03/06 03:02:19;;;;;;;31.47;15.17;;;;;;;2.47;100.00;95295.22;5091870;27;20242;-76
2023/03/06 03:04:46;;;;;;;36.30;16.87;;;;;;;2.45;100.00;95291.97;5104822;28;20260;-76
2023/03/06 03:07:13;;;;;;;31.93;15.60;;;;;;;2.49;100.00;95282.50;5115971;27;20207;-77
2023/03/06 03:09:41;;;;;;;28.77;14.83;;;;;;;2.51;100.00;95280.47;5102747;28;20246;-76
2023/03/06 03:12:08;;;;;;;30.97;14.70;;;;;;;2.52;100.00;95279.44;5102214;27;20231;-76
2023/03/06 03:14:35;;;;;;;26.57;13.97;;;;;;;2.40;100.00;95279.25;5107367;28;20318;-77
2023/03/06 03:17:05;;;;;;;29.50;15.43;;;;;;;2.21;100.00;95275.53;5098264;28;20197;-76
2023/03/06 03:19:32;;;;;;;30.20;14.67;;;;;;;2.10;100.00;95270.84;5103519;28;20219;-76
2023/03/06 03:21:59;;;;;;;35.53;16.47;;;;;;;2.00;100.00;95273.09;5096531;28;20223;-76
2023/03/06 03:24:26;;;;;;;31.57;15.70;;;;;;;1.89;100.00;95277.16;5102392;27;20208;-77
2023/03/06 03:26:54;;;;;;;28.00;14.60;;;;;;;1.78;100.00;95268.97;5108686;27;20245;-76
2023/03/06 03:29:23;;;;;;;28.87;15.00;;;;;;;1.73;100.00;95271.41;5091576;28;20310;-76
2023/03/06 03:31:50;;;;;;;34.67;15.80;;;;;;;1.62;100.00;95264.00;5103269;28;20204;-77
2023/03/06 03:34:18;;;;;;;33.57;14.73;;;;;;;1.51;100.00;95266.25;5092678;28;20223;-77
2023/03/06 03:36:45;;;;;;;29.83;14.97;;;;;;;1.44;100.00;95260.09;5101998;28;20205;-76
2023/03/06 03:39:14;;;;;;;31.33;14.47;;;;;;;1.44;100.00;95257.44;5106697;28;20211;-76
2023/03/06 03:41:42;;;;;;;30.77;14.60;;;;;;;1.52;100.00;95253.78;5100060;28;20219;-76
2023/03/06 03:44:10;;;;;;;31.27;14.10;;;;;;;1.55;100.00;95255.19;5093172;28;20224;-76
2023/03/06 03:46:37;;;;;;;34.50;15.20;;;;;;;1.51;100.00;95254.78;5107844;28;20199;-76
2023/03/06 03:49:08;;;;;;;34.70;15.47;;;;;;;1.50;100.00;95247.81;5106694;27;20211;-76
2023/03/06 03:51:39;;;;;;;34.20;15.77;;;;;;;1.54;100.00;95251.72;5101441;27;20239;-77
2023/03/06 03:54:06;;;;;;;29.80;14.40;;;;;;;1.64;100.00;95252.16;5101487;28;20196;-77
2023/03/06 03:56:40;;;;;;;31.37;15.07;;;;;;;1.70;100.00;95243.34;5108558;27;20203;-76
2023/03/06 03:59:14;;;;;;;32.47;15.43;;;;;;;1.75;100.00;95259.53;5099602;27;20253;-76
2023/03/06 04:01:49;;;;;;;27.13;14.37;;;;;;;1.72;100.00;95256.44;5100822;28;20237;-76
2023/03/06 04:04:17;;;;;;;27.87;14.10;;;;;;;1.56;100.00;95252.34;5100344;28;20207;-77
2023/03/06 04:06:46;;;;;;;33.77;14.73;;;;;;;1.41;100.00;95251.69;5103033;28;20208;-76
2023/03/06 04:09:15;;;;;;;33.10;15.57;;;;;;;1.35;100.00;95248.00;5098464;28;20201;-76
2023/03/06 04:11:42;;;;;;;32.57;15.43;;;;;;;1.26;100.00;95254.50;5095636;28;20266;-76
2023/03/06 04:14:09;;;;;;;30.90;15.90;;;;;;;1.21;100.00;95250.78;5100331;28;20232;-76
2023/03/06 04:16:37;;;;;;;37.70;16.43;;;;;;;1.24;100.00;95250.41;5094286;28;20291;-76
2023/03/06 04:19:04;;;;;;;33.97;16.73;;;;;;;1.31;100.00;95254.72;5092648;28;20219;-77
2023/03/06 04:21:31;;;;;;;36.77;17.00;;;;;;;1.39;100.00;95243.91;5091389;28;20227;-76
2023/03/06 04:24:00;;;;;;;38.30;17.07;;;;;;;1.37;100.00;95243.28;5093985;28;20293;-77
2023/03/06 04:26:27;;;;;;;35.10;16.07;;;;;;;1.36;100.00;95248.81;5096673;28;20226;-77
2023/03/06 04:28:55;;;;;;;32.60;15.33;;;;;;;1.31;100.00;95243.25;5100505;28;20220;-77
2023/03/06 04:31:22;;;;;;;34.33;16.13;;;;;;;1.34;100.00;95246.34;5103183;28;20199;-76
2023/03/06 04:33:50;;;;;;;32.17;15.30;;;;;;;1.37;100.00;95251.25;5090422;28;20216;-77
2023/03/06 04:36:26;;;;;;;32.20;15.50;;;;;;;1.36;100.00;95254.13;5099845;28;20290;-78
2023/03/06 04:38:55;;;;;;;31.63;14.87;;;;;;;1.24;100.00;95251.22;5092823;28;20206;-76
2023/03/06 04:41:24;;;;;;;34.73;16.33;;;;;;;1.17;100.00;95250.38;5101076;28;20204;-77
2023/03/06 04:43:51;;;;;;;34.73;15.83;;;;;;;1.24;100.00;95248.56;5101918;28;20222;-77
2023/03/06 04:46:18;;;;;;;37.70;18.77;;;;;;;1.28;100.00;95256.94;5104216;28;20206;-77
2023/03/06 04:48:45;;;;;;;35.50;18.30;;;;;;;1.31;100.00;95252.06;5095151;28;20264;-77
2023/03/06 04:51:13;;;;;;;29.40;15.20;;;;;;;1.31;100.00;95257.38;5084061;28;20204;-76
2023/03/06 04:53:40;;;;;;;27.43;14.03;;;;;;;1.20;100.00;95254.47;5097927;27;20195;-78
2023/03/06 04:56:08;;;;;;;29.50;14.90;;;;;;;1.14;100.00;95264.06;5085777;28;20469;-77
2023/03/06 04:58:37;;;;;;;31.43;15.93;;;;;;;1.06;100.00;95264.25;5080998;28;20214;-77
2023/03/06 05:01:04;;;;;;;33.20;15.90;;;;;;;1.01;100.00;95262.19;5087078;28;20215;-77
2023/03/06 05:03:32;;;;;;;33.03;15.60;;;;;;;1.05;100.00;95263.41;5100643;28;20336;-77
2023/03/06 05:05:59;;;;;;;32.37;14.80;;;;;;;1.09;100.00;95263.84;5086681;28;20211;-76
2023/03/06 05:08:26;;;;;;;34.00;16.23;;;;;;;1.07;100.00;95250.75;5086345;28;20233;-77
2023/03/06 05:10:55;;;;;;;36.53;16.07;;;;;;;1.02;100.00;95263.00;5084711;27;20192;-77
2023/03/06 05:13:22;;;;;;;33.33;15.37;;;;;;;1.00;100.00;95268.50;5085241;28;20230;-77
2023/03/06 05:15:51;;;;;;;33.67;16.07;;;;;;;1.05;100.00;95267.91;5092580;28;20202;-77
2023/03/06 05:18:19;;;;;;;34.30;16.93;;;;;;;1.09;100.00;95270.00;5087905;28;20215;-77
2023/03/06 05:20:46;;;;;;;35.13;16.03;;;;;;;1.03;100.00;95267.28;5099026;28;20208;-77
2023/03/06 05:23:13;;;;;;;31.70;14.77;;;;;;;-141.59;100.00;61776.25;5089460;27;20216;-76
2023/03/06 05:25:41;;;;;;;34.53;15.30;;;;;;;-141.59;100.00;61776.25;5101758;27;20203;-76
2023/03/06 05:28:08;;;;;;;28.90;13.40;;;;;;;-141.59;100.00;61776.25;5081563;28;20216;-77
2023/03/06 05:30:36;;;;;;;33.53;15.23;;;;;;;-141.59;100.00;61776.25;5102672;28;20203;-77
2023/03/06 05:33:05;;;;;;;36.03;15.83;;;;;;;-141.59;100.00;61776.25;5078904;28;20196;-77
2023/03/06 05:35:32;;;;;;;32.20;14.97;;;;;;;-141.59;100.00;61776.25;5083834;28;20211;-77
2023/03/06 05:37:59;;;;;;;30.73;14.40;;;;;;;-141.59;100.00;61776.25;5096407;28;20287;-76
2023/03/06 05:40:26;;;;;;;33.07;15.67;;;;;;;-141.59;100.00;61776.25;5083646;28;20247;-76
2023/03/06 05:42:54;;;;;;;30.87;14.90;;;;;;;-141.59;100.00;61776.25;5089243;28;20216;-76
2023/03/06 05:45:21;;;;;;;30.93;14.30;;;;;;;-141.59;100.00;61776.25;5084851;27;20198;-77
2023/03/06 05:47:48;;;;;;;35.63;16.40;;;;;;;-141.59;100.00;61776.25;5088654;28;20242;-76
2023/03/06 05:50:17;;;;;;;36.40;16.00;;;;;;;-141.59;100.00;61776.25;5088394;28;20258;-76
2023/03/06 05:52:44;;;;;;;31.73;15.47;;;;;;;-141.59;100.00;61776.25;5085204;28;20292;-78
2023/03/06 05:55:12;;;;;;;40.17;17.37;;;;;;;-141.59;100.00;61776.25;5077073;28;20203;-77
2023/03/06 05:57:39;;;;;;;36.73;16.33;;;;;;;-141.59;100.00;61776.25;5070902;28;20217;-77
2023/03/06 06:00:08;;;;;;;33.03;15.00;;;;;;;-141.59;100.00;61776.25;5092185;28;20207;-77
2023/03/06 06:02:39;;;;;;;31.43;15.03;;;;;;;-141.59;100.00;61776.25;5109335;27;20225;-77
2023/03/06 06:05:07;;;;;;;38.00;17.40;;;;;;;-141.59;100.00;61776.25;5097301;27;20249;-77
2023/03/06 06:07:36;;;;;;;32.30;14.93;;;;;;;-141.59;100.00;61776.25;5080480;28;20261;-77
2023/03/06 06:10:04;;;;;;;34.07;16.23;;;;;;;-141.59;100.00;61776.25;5080003;28;20204;-77
2023/03/06 06:12:32;;;;;;;34.40;17.50;;;;;;;-141.59;100.00;61776.25;5086127;28;20193;-77
2023/03/06 06:14:59;;;;;;;37.20;16.90;;;;;;;-141.59;100.00;61776.25;5084240;27;20224;-77
2023/03/06 06:17:26;;;;;;;38.53;19.90;;;;;;;-141.59;100.00;61776.25;5089107;28;20219;-78
2023/03/06 06:19:53;;;;;;;35.23;15.90;;;;;;;-141.59;100.00;61776.25;5078440;28;20262;-79
2023/03/06 06:22:20;;;;;;;30.27;14.80;;;;;;;-141.59;100.00;61776.25;5073995;28;20222;-77
2023/03/06 06:24:49;;;;;;;34.67;16.77;;;;;;;-141.59;100.00;61776.25;5080078;28;20258;-77
2023/03/06 06:27:15;;;;;;;30.90;14.17;;;;;;;-141.59;100.00;61776.25;5085857;27;20229;-78
2023/03/06 06:29:42;;;;;;;30.87;15.00;;;;;;;-141.59;100.00;61776.25;5088684;28;20229;-77
2023/03/06 06:32:09;;;;;;;32.97;17.47;;;;;;;-141.59;100.00;61776.25;5077027;28;20208;-77
2023/03/06 06:34:36;;;;;;;33.00;14.73;;;;;;;-141.59;100.00;61776.25;5085004;27;20193;-77
2023/03/06 06:37:04;;;;;;;29.80;15.13;;;;;;;-141.59;100.00;61776.25;5096338;28;20212;-77
2023/03/06 06:39:31;;;;;;;31.30;14.40;;;;;;;-141.59;100.00;61776.25;5077116;28;20239;-78
2023/03/06 06:42:01;;;;;;;28.73;14.03;;;;;;;-141.59;100.00;61776.25;5074545;28;20200;-77
2023/03/06 06:44:28;;;;;;;33.73;15.33;;;;;;;-141.59;100.00;61776.25;5072713;28;20224;-77
2023/03/06 06:46:55;;;;;;;39.83;19.97;;;;;;;-141.59;100.00;61776.25;5085463;28;20366;-77
2023/03/06 06:49:22;;;;;;;40.63;22.40;;;;;;;-141.59;100.00;61776.25;5091546;28;20306;-77
2023/03/06 06:51:49;;;;;;;39.40;21.50;;;;;;;-141.59;100.00;61776.25;5076971;28;20208;-77
2023/03/06 06:54:17;;;;;;;44.10;19.43;;;;;;;-141.59;100.00;61776.25;5087396;28;20236;-77
2023/03/06 06:56:44;;;;;;;33.43;16.30;;;;;;;-141.59;100.00;61776.25;5090720;28;20224;-76
2023/03/06 06:59:12;;;;;;;28.97;15.97;;;;;;;-141.59;100.00;61776.25;5079481;28;20657;-78
2023/03/06 07:01:40;;;;;;;33.83;15.87;;;;;;;-141.59;100.00;61776.25;5077829;28;20212;-78
2023/03/06 07:04:07;;;;;;;33.67;16.40;;;;;;;-141.59;100.00;61776.25;5083269;28;20277;-77
2023/03/06 07:06:34;;;;;;;30.93;15.63;;;;;;;-141.59;100.00;61776.25;5077530;28;20215;-77
2023/03/06 07:09:01;;;;;;;41.13;17.67;;;;;;;-141.59;100.00;61776.25;5098251;28;20545;-77
2023/03/06 07:11:27;;;;;;;35.30;16.23;;;;;;;-141.59;100.00;61776.25;5074562;27;20201;-77
2023/03/06 07:13:55;;;;;;;32.63;15.77;;;;;;;-141.59;100.00;61776.25;5091000;28;20235;-77
2023/03/06 07:16:23;;;;;;;30.77;16.07;;;;;;;-141.59;100.00;61776.25;5078577;28;20201;-77
2023/03/06 07:18:50;;;;;;;30.73;15.03;;;;;;;-141.59;100.00;61776.25;5085064;28;20207;-77
2023/03/06 07:21:17;;;;;;;32.67;17.10;;;;;;;-141.59;100.00;61776.25;5076108;28;20200;-78
2023/03/06 07:23:44;;;;;;;39.23;19.43;;;;;;;-141.59;100.00;61776.25;5094177;28;20217;-77
2023/03/06 07:26:12;;;;;;;34.30;17.13;;;;;;;-141.59;100.00;61776.25;5082773;28;20227;-77
2023/03/06 07:28:39;;;;;;;29.37;15.30;;;;;;;-141.59;100.00;61776.25;5076341;28;20223;-78
2023/03/06 07:31:10;;;;;;;30.30;15.37;;;;;;;-141.59;100.00;61776.25;5076557;28;20208;-78
2023/03/06 07:33:39;;;;;;;29.83;14.50;;;;;;;-141.59;100.00;61776.25;5069979;28;20197;-77
2023/03/06 07:36:10;;;;;;;31.43;14.50;;;;;;;-141.59;100.00;61776.25;5096536;28;20209;-77
2023/03/06 07:38:37;;;;;;;25.40;14.17;;;;;;;-141.59;100.00;61776.25;5082565;28;20212;-77
2023/03/06 07:41:08;;;;;;;29.50;14.70;;;;;;;-141.59;100.00;61776.25;5079022;28;20207;-77
2023/03/06 07:43:36;;;;;;;28.73;14.27;;;;;;;-141.59;100.00;61776.25;5089861;28;20226;-77
2023/03/06 07:46:06;;;;;;;28.43;13.37;;;;;;;-141.59;100.00;61776.25;5095876;28;20215;-77
2023/03/06 07:48:35;;;;;;;27.27;15.40;;;;;;;-141.59;100.00;61776.25;5084952;28;20285;-77
2023/03/06 07:51:06;;;;;;;28.43;14.30;;;;;;;-141.59;100.00;61776.25;5088020;28;20199;-77
2023/03/06 07:53:34;;;;;;;31.33;15.37;;;;;;;-141.59;100.00;61776.25;5081677;28;20208;-77
2023/03/06 07:56:07;;;;;;;28.53;15.23;;;;;;;-141.59;100.00;61776.25;5103498;28;20196;-77
2023/03/06 07:58:34;;;;;;;33.93;15.03;;;;;;;-141.59;100.00;61776.25;5082085;28;20208;-77
2023/03/06 08:01:04;;;;;;;28.80;15.83;;;;;;;-141.59;100.00;61776.25;5087376;28;20199;-77
2023/03/06 08:03:32;;;;;;;31.97;16.43;;;;;;;-141.59;100.00;61776.25;5080453;28;20307;-77
2023/03/06 08:06:08;;;;;;;31.27;15.63;;;;;;;-141.59;100.00;61776.25;5104358;28;20204;-77
2023/03/06 08:08:35;;;;;;;31.87;16.07;;;;;;;-141.59;100.00;61776.25;5085800;28;20218;-77
2023/03/06 08:11:03;;;;;;;34.33;16.57;;;;;;;-141.59;100.00;61776.25;5085608;28;20209;-76
2023/03/06 08:13:30;;;;;;;39.33;16.70;;;;;;;-141.59;100.00;61776.25;5080653;28;20259;-78
2023/03/06 08:15:58;;;;;;;31.40;16.27;;;;;;;-141.59;100.00;61776.25;5089087;28;20193;-77
2023/03/06 08:18:26;;;;;;;33.07;16.53;;;;;;;-141.59;100.00;61776.25;5089421;28;20204;-77
2023/03/06 08:21:01;;;;;;;32.03;16.57;;;;;;;-141.59;100.00;61776.25;5093904;28;20263;-78
2023/03/06 08:23:30;;;;;;;33.70;16.73;;;;;;;-141.59;100.00;61776.25;5086692;28;20216;-77
2023/03/06 08:25:58;;;;;;;34.33;16.97;;;;;;;-141.59;100.00;61776.25;5087196;28;20269;-77
2023/03/06 08:28:25;;;;;;;33.57;17.73;;;;;;;-141.59;100.00;61776.25;5090997;28;20239;-77
2023/03/06 08:30:52;;;;;;;34.77;16.13;;;;;;;-141.59;100.00;61776.25;5086241;28;20208;-77
2023/03/06 08:33:20;;;;;;;31.10;16.17;;;;;;;-141.59;100.00;61776.25;5092741;28;20257;-77
2023/03/06 08:35:47;;;;;;;30.77;17.30;;;;;;;-141.59;100.00;61776.25;5093527;28;20204;-77
2023/03/06 08:38:15;;;;;;;33.27;17.17;;;;;;;-141.59;100.00;61776.25;5089026;28;20212;-78
2023/03/06 08:40:43;;;;;;;32.53;16.97;;;;;;;-141.59;100.00;61776.25;5087103;28;20196;-77
2023/03/06 08:43:11;;;;;;;35.27;18.13;;;;;;;-141.59;100.00;61776.25;5095021;28;20260;-77
2023/03/06 08:45:39;;;;;;;36.73;16.53;;;;;;;-141.59;100.00;61776.25;5087355;28;20193;-77
2023/03/06 08:48:06;;;;;;;38.43;18.07;;;;;;;-141.59;100.00;61776.25;5103845;28;20260;-79
2023/03/06 08:50:33;;;;;;;34.67;17.57;;;;;;;-141.59;100.00;61776.25;5080450;28;20208;-77
2023/03/06 08:53:00;;;;;;;39.50;18.83;;;;;;;-141.59;100.00;61776.25;5106881;27;20235;-78
2023/03/06 08:55:28;;;;;;;35.27;18.00;;;;;;;-141.59;100.00;61776.25;5077279;28;20203;-78
2023/03/06 08:57:57;;;;;;;35.93;18.50;;;;;;;-141.59;100.00;61776.25;5077678;28;20216;-76
2023/03/06 09:00:24;;;;;;;40.10;18.57;;;;;;;-141.59;100.00;61776.25;5084737;28;20204;-77
2023/03/06 09:02:51;;;;;;;32.03;17.50;;;;;;;-141.59;100.00;61776.25;5079553;28;20234;-77
2023/03/06 09:05:19;;;;;;;38.67;19.33;;;;;;;-141.59;100.00;61776.25;5095359;27;20216;-78
2023/03/06 09:07:46;;;;;;;40.87;20.27;;;;;;;-141.59;100.00;61776.25;5098869;28;20220;-77
2023/03/06 09:10:14;;;;;;;39.27;20.43;;;;;;;-141.59;100.00;61776.25;5103251;27;20195;-77
2023/03/06 09:12:42;;;;;;;37.40;19.93;;;;;;;-141.59;100.00;61776.25;5086867;28;20211;-78
2023/03/06 09:15:12;;;;;;;37.63;19.17;;;;;;;-141.59;100.00;61776.25;5083017;28;20243;-77
2023/03/06 09:17:39;;;;;;;34.83;19.93;;;;;;;-141.59;100.00;61776.25;5082290;28;20219;-77
2023/03/06 09:20:08;;;;;;;46.07;20.67;;;;;;;-141.59;100.00;61776.25;5079139;28;20291;-77
2023/03/06 09:22:36;;;;;;;39.23;20.17;;;;;;;-141.59;100.00;61776.25;5090768;28;20220;-77
2023/03/06 09:25:04;;;;;;;35.37;18.63;;;;;;;-141.59;100.00;61776.25;5078179;28;20209;-77
2023/03/06 09:27:31;;;;;;;36.87;19.37;;;;;;;-141.59;100.00;61776.25;5104381;27;20282;-77
2023/03/06 09:29:58;;;;;;;34.63;18.17;;;;;;;-141.59;100.00;61776.25;5096203;28;20208;-77
2023/03/06 09:32:26;;;;;;;38.60;20.07;;;;;;;-141.59;100.00;61776.25;5083576;28;20228;-77
2023/03/06 09:34:53;;;;;;;32.47;18.37;;;;;;;-141.59;100.00;61776.25;5093170;28;20215;-77
2023/03/06 09:37:20;;;;;;;40.17;18.20;;;;;;;-141.59;100.00;61776.25;5082241;28;20196;-77
2023/03/06 09:39:48;;;;;;;35.57;18.90;;;;;;;-141.59;100.00;61776.25;5087076;28;20200;-77
2023/03/06 09:42:18;;;;;;;38.30;19.43;;;;;;;-141.59;100.00;61776.25;5084056;28;20936;-77
2023/03/06 09:44:50;;;;;;;40.60;19.60;;;;;;;-141.59;100.00;61776.25;5082432;28;20283;-77
2023/03/06 09:47:40;;;;;;;36.90;18.27;;;;;;;-141.59;100.00;61776.25;5078909;28;20240;-77
2023/03/06 09:50:22;;;;;;;39.07;19.00;;;;;;;-141.59;100.00;61776.25;5072317;28;20220;-77
2023/03/06 09:53:15;;;;;;;39.20;18.97;;;;;;;-141.59;100.00;61776.25;5077285;28;21352;-78
2023/03/06 09:55:43;;;;;;;37.40;18.43;;;;;;;-141.59;100.00;61776.25;5090092;27;20205;-77
2023/03/06 09:58:16;;;;;;;32.17;17.67;;;;;;;-141.59;100.00;61776.25;5086420;28;20224;-77
2023/03/06 10:00:51;;;;;;;40.97;19.23;;;;;;;-141.59;100.00;61776.25;5080452;28;20207;-78
2023/03/06 10:03:25;;;;;;;40.70;20.37;;;;;;;-141.59;100.00;61776.25;5088826;28;20295;-77
2023/03/06 10:05:59;;;;;;;41.57;19.67;;;;;;;-141.59;100.00;61776.25;5096706;27;20200;-77
2023/03/06 10:08:30;;;;;;;37.70;20.37;;;;;;;-141.59;100.00;61776.25;5095432;28;20206;-78
2023/03/06 10:11:02;;;;;;;36.47;20.50;;;;;;;-141.59;100.00;61776.25;5089383;28;20197;-77
2023/03/06 10:13:38;;;;;;;47.53;20.80;;;;;;;-141.59;100.00;61776.25;5099692;27;20229;-77
2023/03/06 10:16:14;;;;;;;40.93;20.90;;;;;;;-141.59;100.00;61776.25;5074914;28;20242;-78
2023/03/06 10:18:42;;;;;;;41.77;20.73;;;;;;;-141.59;100.00;61776.25;5080010;28;20201;-77
2023/03/06 10:21:25;;;;;;;43.07;21.60;;;;;;;-141.59;100.00;61776.25;5082785;28;20200;-77
2023/03/06 10:23:54;;;;;;;43.03;21.27;;;;;;;-141.59;100.00;61776.25;5080291;28;20228;-77
2023/03/06 10:26:26;;;;;;;41.23;21.57;;;;;;;-141.59;100.00;61776.25;5078381;28;20290;-77
2023/03/06 10:29:08;;;;;;;42.57;22.63;;;;;;;-141.59;100.00;61776.25;5082068;28;20206;-78
2023/03/06 10:31:36;;;;;;;44.27;21.70;;;;;;;-141.59;100.00;61776.25;5084697;28;20204;-77
2023/03/06 10:34:18;;;;;;;43.37;21.47;;;;;;;-141.59;100.00;61776.25;5097127;28;20212;-78
2023/03/06 10:36:45;;;;;;;40.73;21.13;;;;;;;-141.59;100.00;61776.25;5089501;28;20237;-77
2023/03/06 10:39:16;;;;;;;42.10;21.93;;;;;;;-141.59;100.00;61776.25;5102196;27;20205;-77
2023/03/06 10:41:45;;;;;;;43.60;21.73;;;;;;;-141.59;100.00;61776.25;5095406;28;20273;-77
2023/03/06 10:44:25;;;;;;;43.80;22.60;;;;;;;-141.59;100.00;61776.25;5085831;28;20208;-77
2023/03/06 10:46:54;;;;;;;42.23;21.67;;;;;;;-141.59;100.00;61776.25;5083827;28;20239;-77
2023/03/06 10:49:34;;;;;;;42.57;21.40;;;;;;;-141.59;100.00;61776.25;5091982;28;20211;-77
2023/03/06 10:52:05;;;;;;;41.63;23.10;;;;;;;-141.59;100.00;61776.25;5079042;28;20278;-77
2023/03/06 10:54:34;;;;;;;42.03;21.50;;;;;;;-141.59;100.00;61776.25;5081599;28;20204;-77
2023/03/06 10:57:20;;;;;;;43.90;23.10;;;;;;;-141.59;100.00;61776.25;5076447;28;20197;-77
2023/03/06 10:59:53;;;;;;;44.60;22.43;;;;;;;-141.59;100.00;61776.25;5083439;28;20223;-77
2023/03/06 11:02:26;;;;;;;41.57;22.00;;;;;;;-141.59;100.00;61776.25;5085523;28;20208;-77
2023/03/06 11:04:56;;;;;;;42.90;21.77;;;;;;;-141.59;100.00;61776.25;5077810;28;20229;-78
2023/03/06 11:07:25;;;;;;;46.37;21.93;;;;;;;-141.59;100.00;61776.25;5082027;27;20208;-78
2023/03/06 11:10:07;;;;;;;41.17;22.30;;;;;;;-141.59;100.00;61776.25;5078441;28;20209;-77
2023/03/06 11:12:37;;;;;;;51.53;22.87;;;;;;;-141.59;100.00;61776.25;5083874;28;20219;-77